sensor_id;sensor_type;location;lat;lon;timestamp;pressure;altitude;pressure_sealevel;temperature;humidity
33414;BME280;60055;41.884;12.534;2023-08-21T00:01:56;101006.28;;;29.02;37.13
33414;BME280;60055;41.884;12.534;2023-08-21T00:04:22;101015.81;;;29.14;36.64
33414;BME280;60055;41.884;12.534;2023-08-21T00:06:47;101005.63;;;29.24;36.80
33414;BME280;60055;41.884;12.534;2023-08-21T00:09:12;101018.72;;;29.20;36.68
33414;BME280;60055;41.884;12.534;2023-08-21T00:11:38;101005.16;;;29.28;36.63
33414;BME280;60055;41.884;12.534;2023-08-21T00:14:03;101003.97;;;29.31;36.59
33414;BME280;60055;41.884;12.534;2023-08-21T00:16:29;101007.53;;;29.23;36.84
33414;BME280;60055;41.884;12.534;2023-08-21T00:18:55;101009.88;;;29.02;37.40
33414;BME280;60055;41.884;12.534;2023-08-21T00:21:20;101009.19;;;29.08;37.21
33414;BME280;60055;41.884;12.534;2023-08-21T00:23:46;101011.06;;;29.08;37.62
33414;BME280;60055;41.884;12.534;2023-08-21T00:26:12;101007.84;;;29.12;37.53
33414;BME280;60055;41.884;12.534;2023-08-21T00:28:38;101007.66;;;29.14;37.46
33414;BME280;60055;41.884;12.534;2023-08-21T00:31:03;101006.47;;;29.24;37.25
33414;BME280;60055;41.884;12.534;2023-08-21T00:33:32;101011.97;;;29.32;37.28
33414;BME280;60055;41.884;12.534;2023-08-21T00:35:58;101001.94;;;29.33;37.36
33414;BME280;60055;41.884;12.534;2023-08-21T00:38:23;101003.63;;;29.34;37.16
33414;BME280;60055;41.884;12.534;2023-08-21T00:40:49;101004.16;;;29.29;37.28
33414;BME280;60055;41.884;12.534;2023-08-21T00:43:15;101005.31;;;29.19;37.64
33414;BME280;60055;41.884;12.534;2023-08-21T00:45:42;101003.31;;;29.29;37.66
33414;BME280;60055;41.884;12.534;2023-08-21T00:48:08;101011.81;;;29.26;37.59
33414;BME280;60055;41.884;12.534;2023-08-21T00:50:35;101011.06;;;29.24;37.79
33414;BME280;60055;41.884;12.534;2023-08-21T00:53:01;101021.13;;;29.23;37.55
33414;BME280;60055;41.884;12.534;2023-08-21T00:55:28;101019.41;;;29.22;37.72
33414;BME280;60055;41.884;12.534;2023-08-21T00:57:54;101020.09;;;29.24;37.52
33414;BME280;60055;41.884;12.534;2023-08-21T01:00:20;101014.34;;;29.35;37.29
33414;BME280;60055;41.884;12.534;2023-08-21T01:02:47;101007.56;;;29.39;37.69
33414;BME280;60055;41.884;12.534;2023-08-21T01:05:13;101011.28;;;29.38;37.83
33414;BME280;60055;41.884;12.534;2023-08-21T01:07:46;101013.00;;;29.39;37.46
33414;BME280;60055;41.884;12.534;2023-08-21T01:10:20;101017.25;;;29.42;37.55
33414;BME280;60055;41.884;12.534;2023-08-21T01:12:54;101018.09;;;29.42;37.43
33414;BME280;60055;41.884;12.534;2023-08-21T01:15:22;101015.69;;;29.48;37.12
33414;BME280;60055;41.884;12.534;2023-08-21T01:17:49;101011.97;;;29.49;37.35
33414;BME280;60055;41.884;12.534;2023-08-21T01:20:14;101016.03;;;29.45;37.33
33414;BME280;60055;41.884;12.534;2023-08-21T01:22:41;101015.72;;;29.39;37.43
33414;BME280;60055;41.884;12.534;2023-08-21T01:25:11;101023.63;;;29.17;37.86
33414;BME280;60055;41.884;12.534;2023-08-21T01:27:37;101023.16;;;29.13;38.36
33414;BME280;60055;41.884;12.534;2023-08-21T01:30:04;101017.34;;;29.08;38.63
33414;BME280;60055;41.884;12.534;2023-08-21T01:32:47;101010.91;;;29.17;38.17
33414;BME280;60055;41.884;12.534;2023-08-21T01:35:14;101019.06;;;29.09;38.34
33414;BME280;60055;41.884;12.534;2023-08-21T01:37:41;101018.34;;;29.07;38.73
33414;BME280;60055;41.884;12.534;2023-08-21T01:40:08;101021.09;;;29.15;38.67
33414;BME280;60055;41.884;12.534;2023-08-21T01:42:33;101026.88;;;29.12;38.34
33414;BME280;60055;41.884;12.534;2023-08-21T01:44:59;101018.03;;;29.18;38.47
33414;BME280;60055;41.884;12.534;2023-08-21T01:47:24;101020.09;;;29.16;38.73
33414;BME280;60055;41.884;12.534;2023-08-21T01:49:50;101025.34;;;29.10;38.63
33414;BME280;60055;41.884;12.534;2023-08-21T01:52:18;101015.81;;;29.06;38.84
33414;BME280;60055;41.884;12.534;2023-08-21T01:54:44;101019.34;;;28.90;39.84
33414;BME280;60055;41.884;12.534;2023-08-21T01:57:10;101028.16;;;28.84;39.97
33414;BME280;60055;41.884;12.534;2023-08-21T01:59:35;101029.50;;;28.72;40.28
33414;BME280;60055;41.884;12.534;2023-08-21T02:02:00;101034.09;;;28.71;40.17
33414;BME280;60055;41.884;12.534;2023-08-21T02:04:26;101030.25;;;28.56;40.81
33414;BME280;60055;41.884;12.534;2023-08-21T02:06:51;101029.75;;;28.61;40.41
33414;BME280;60055;41.884;12.534;2023-08-21T02:09:17;101028.56;;;28.55;40.93
33414;BME280;60055;41.884;12.534;2023-08-21T02:11:42;101022.59;;;28.52;40.79
33414;BME280;60055;41.884;12.534;2023-08-21T02:14:08;101024.94;;;28.47;40.89
33414;BME280;60055;41.884;12.534;2023-08-21T02:16:33;101024.50;;;28.59;40.40
33414;BME280;60055;41.884;12.534;2023-08-21T02:18:59;101027.03;;;28.61;40.66
33414;BME280;60055;41.884;12.534;2023-08-21T02:21:24;101019.25;;;28.66;40.42
33414;BME280;60055;41.884;12.534;2023-08-21T02:23:50;101014.28;;;28.53;41.00
33414;BME280;60055;41.884;12.534;2023-08-21T02:26:15;101016.78;;;28.47;41.32
33414;BME280;60055;41.884;12.534;2023-08-21T02:28:41;101018.84;;;28.53;40.97
33414;BME280;60055;41.884;12.534;2023-08-21T02:31:11;101016.63;;;28.48;41.02
33414;BME280;60055;41.884;12.534;2023-08-21T02:33:36;101013.88;;;28.40;41.05
33414;BME280;60055;41.884;12.534;2023-08-21T02:36:02;101017.81;;;28.46;41.25
33414;BME280;60055;41.884;12.534;2023-08-21T02:38:28;101021.88;;;28.41;41.40
33414;BME280;60055;41.884;12.534;2023-08-21T02:40:54;101016.88;;;28.29;41.63
33414;BME280;60055;41.884;12.534;2023-08-21T02:43:19;101010.75;;;28.27;41.79
33414;BME280;60055;41.884;12.534;2023-08-21T02:45:45;101016.00;;;28.20;42.16
33414;BME280;60055;41.884;12.534;2023-08-21T02:48:10;101019.25;;;28.24;41.77
33414;BME280;60055;41.884;12.534;2023-08-21T02:50:36;101015.13;;;28.20;42.16
33414;BME280;60055;41.884;12.534;2023-08-21T02:53:01;101020.91;;;28.17;42.27
33414;BME280;60055;41.884;12.534;2023-08-21T02:55:27;101009.34;;;28.15;42.24
33414;BME280;60055;41.884;12.534;2023-08-21T02:57:52;101019.38;;;28.14;42.24
33414;BME280;60055;41.884;12.534;2023-08-21T03:00:18;101016.78;;;27.87;43.01
33414;BME280;60055;41.884;12.534;2023-08-21T03:02:43;101014.16;;;28.03;42.64
33414;BME280;60055;41.884;12.534;2023-08-21T03:05:09;101024.47;;;27.91;42.96
33414;BME280;60055;41.884;12.534;2023-08-21T03:07:35;101023.72;;;28.07;42.94
33414;BME280;60055;41.884;12.534;2023-08-21T03:10:00;101020.38;;;27.96;43.15
33414;BME280;60055;41.884;12.534;2023-08-21T03:12:27;101022.03;;;27.88;42.85
33414;BME280;60055;41.884;12.534;2023-08-21T03:14:53;101022.16;;;28.05;42.65
33414;BME280;60055;41.884;12.534;2023-08-21T03:17:19;101026.44;;;28.07;42.52
33414;BME280;60055;41.884;12.534;2023-08-21T03:19:44;101020.31;;;28.05;43.03
33414;BME280;60055;41.884;12.534;2023-08-21T03:22:10;101026.84;;;27.95;43.10
33414;BME280;60055;41.884;12.534;2023-08-21T03:24:35;101022.34;;;27.85;43.36
33414;BME280;60055;41.884;12.534;2023-08-21T03:27:01;101018.75;;;27.77;43.31
33414;BME280;60055;41.884;12.534;2023-08-21T03:29:27;101025.78;;;27.87;43.17
33414;BME280;60055;41.884;12.534;2023-08-21T03:31:53;101015.63;;;27.72;43.66
33414;BME280;60055;41.884;12.534;2023-08-21T03:34:19;101017.81;;;27.68;43.84
33414;BME280;60055;41.884;12.534;2023-08-21T03:36:45;101019.09;;;27.56;43.83
33414;BME280;60055;41.884;12.534;2023-08-21T03:39:10;101028.84;;;27.67;43.52
33414;BME280;60055;41.884;12.534;2023-08-21T03:41:36;101017.78;;;27.60;43.80
33414;BME280;60055;41.884;12.534;2023-08-21T03:44:01;101024.75;;;27.63;43.83
33414;BME280;60055;41.884;12.534;2023-08-21T03:46:27;101025.16;;;27.50;44.24
33414;BME280;60055;41.884;12.534;2023-08-21T03:48:52;101023.03;;;27.62;44.12
33414;BME280;60055;41.884;12.534;2023-08-21T03:51:18;101018.56;;;27.53;44.50
33414;BME280;60055;41.884;12.534;2023-08-21T03:53:43;101021.16;;;27.62;44.11
33414;BME280;60055;41.884;12.534;2023-08-21T03:56:09;101023.53;;;27.57;44.41
33414;BME280;60055;41.884;12.534;2023-08-21T03:58:34;101026.88;;;27.77;43.74
33414;BME280;60055;41.884;12.534;2023-08-21T04:01:00;101029.72;;;27.67;44.03
33414;BME280;60055;41.884;12.534;2023-08-21T04:03:25;101020.00;;;27.65;44.36
33414;BME280;60055;41.884;12.534;2023-08-21T04:05:53;101031.66;;;27.57;44.31
33414;BME280;60055;41.884;12.534;2023-08-21T04:08:19;101027.13;;;27.66;43.81
33414;BME280;60055;41.884;12.534;2023-08-21T04:10:44;101033.19;;;27.60;44.20
33414;BME280;60055;41.884;12.534;2023-08-21T04:13:10;101028.63;;;27.60;43.99
33414;BME280;60055;41.884;12.534;2023-08-21T04:15:35;101036.53;;;27.71;44.16
33414;BME280;60055;41.884;12.534;2023-08-21T04:18:01;101035.91;;;27.60;44.21
33414;BME280;60055;41.884;12.534;2023-08-21T04:20:26;101034.59;;;27.64;44.24
33414;BME280;60055;41.884;12.534;2023-08-21T04:22:52;101040.47;;;27.59;44.53
33414;BME280;60055;41.884;12.534;2023-08-21T04:25:17;101038.63;;;27.60;44.47
33414;BME280;60055;41.884;12.534;2023-08-21T04:27:43;101044.81;;;27.70;44.16
33414;BME280;60055;41.884;12.534;2023-08-21T04:30:10;101038.47;;;27.61;44.27
33414;BME280;60055;41.884;12.534;2023-08-21T04:32:35;101047.22;;;27.73;44.46
33414;BME280;60055;41.884;12.534;2023-08-21T04:35:01;101039.16;;;27.63;44.04
33414;BME280;60055;41.884;12.534;2023-08-21T04:37:26;101036.22;;;27.57;44.48
33414;BME280;60055;41.884;12.534;2023-08-21T04:39:55;101045.22;;;27.57;44.63
33414;BME280;60055;41.884;12.534;2023-08-21T04:42:21;101040.34;;;27.61;44.25
33414;BME280;60055;41.884;12.534;2023-08-21T04:44:46;101038.63;;;27.60;44.28
33414;BME280;60055;41.884;12.534;2023-08-21T04:47:23;101052.06;;;27.61;44.51
33414;BME280;60055;41.884;12.534;2023-08-21T04:49:51;101046.13;;;27.66;44.12
33414;BME280;60055;41.884;12.534;2023-08-21T04:52:17;101047.41;;;27.54;44.47
33414;BME280;60055;41.884;12.534;2023-08-21T04:54:42;101044.72;;;27.62;44.31
33414;BME280;60055;41.884;12.534;2023-08-21T04:57:08;101050.78;;;27.56;44.49
33414;BME280;60055;41.884;12.534;2023-08-21T04:59:35;101050.03;;;27.63;44.70
33414;BME280;60055;41.884;12.534;2023-08-21T05:02:00;101055.66;;;27.70;44.28
33414;BME280;60055;41.884;12.534;2023-08-21T05:04:26;101048.06;;;27.73;44.18
33414;BME280;60055;41.884;12.534;2023-08-21T05:06:52;101051.00;;;27.80;43.87
33414;BME280;60055;41.884;12.534;2023-08-21T05:09:17;101066.22;;;27.99;43.83
33414;BME280;60055;41.884;12.534;2023-08-21T05:11:43;101060.09;;;28.14;43.51
33414;BME280;60055;41.884;12.534;2023-08-21T05:14:08;101073.69;;;28.14;43.08
33414;BME280;60055;41.884;12.534;2023-08-21T05:16:34;101066.19;;;28.42;42.84
33414;BME280;60055;41.884;12.534;2023-08-21T05:19:00;101071.25;;;28.37;43.09
33414;BME280;60055;41.884;12.534;2023-08-21T05:21:25;101072.31;;;28.44;43.06
33414;BME280;60055;41.884;12.534;2023-08-21T05:23:50;101076.22;;;28.41;42.79
33414;BME280;60055;41.884;12.534;2023-08-21T05:26:16;101080.19;;;28.89;41.80
33414;BME280;60055;41.884;12.534;2023-08-21T05:28:41;101089.25;;;29.14;41.42
33414;BME280;60055;41.884;12.534;2023-08-21T05:31:07;101083.28;;;29.02;41.76
33414;BME280;60055;41.884;12.534;2023-08-21T05:33:32;101083.81;;;29.14;41.45
33414;BME280;60055;41.884;12.534;2023-08-21T05:35:57;101096.50;;;28.89;41.69
33414;BME280;60055;41.884;12.534;2023-08-21T05:38:23;101086.22;;;29.25;41.49
33414;BME280;60055;41.884;12.534;2023-08-21T05:40:48;101098.03;;;29.41;40.83
33414;BME280;60055;41.884;12.534;2023-08-21T05:43:16;101097.00;;;29.42;40.36
33414;BME280;60055;41.884;12.534;2023-08-21T05:45:41;101100.31;;;29.86;39.86
33414;BME280;60055;41.884;12.534;2023-08-21T05:48:06;101098.72;;;30.08;39.93
33414;BME280;60055;41.884;12.534;2023-08-21T05:50:32;101104.69;;;30.44;39.07
33414;BME280;60055;41.884;12.534;2023-08-21T05:52:57;101101.09;;;30.44;38.60
33414;BME280;60055;41.884;12.534;2023-08-21T05:55:23;101115.38;;;30.46;38.79
33414;BME280;60055;41.884;12.534;2023-08-21T05:57:48;101107.69;;;30.57;38.85
33414;BME280;60055;41.884;12.534;2023-08-21T06:00:14;101099.53;;;30.49;38.51
33414;BME280;60055;41.884;12.534;2023-08-21T06:02:40;101117.03;;;30.71;38.42
33414;BME280;60055;41.884;12.534;2023-08-21T06:05:08;101110.13;;;30.91;37.93
33414;BME280;60055;41.884;12.534;2023-08-21T06:07:34;101115.25;;;30.86;38.02
33414;BME280;60055;41.884;12.534;2023-08-21T06:09:59;101117.97;;;31.02;37.69
33414;BME280;60055;41.884;12.534;2023-08-21T06:12:25;101116.91;;;31.03;37.54
33414;BME280;60055;41.884;12.534;2023-08-21T06:14:50;101106.97;;;31.10;37.63
33414;BME280;60055;41.884;12.534;2023-08-21T06:17:16;101116.88;;;31.11;37.40
33414;BME280;60055;41.884;12.534;2023-08-21T06:19:41;101113.50;;;31.09;37.29
33414;BME280;60055;41.884;12.534;2023-08-21T06:22:07;101119.91;;;31.16;37.72
33414;BME280;60055;41.884;12.534;2023-08-21T06:24:33;101116.34;;;31.47;37.01
33414;BME280;60055;41.884;12.534;2023-08-21T06:26:58;101112.06;;;31.44;37.16
33414;BME280;60055;41.884;12.534;2023-08-21T06:29:24;101105.56;;;31.76;36.83
33414;BME280;60055;41.884;12.534;2023-08-21T06:31:50;101113.38;;;31.79;36.39
33414;BME280;60055;41.884;12.534;2023-08-21T06:34:15;101120.19;;;31.98;36.05
33414;BME280;60055;41.884;12.534;2023-08-21T06:36:40;101115.78;;;32.19;35.58
33414;BME280;60055;41.884;12.534;2023-08-21T06:39:06;101113.94;;;32.34;35.37
33414;BME280;60055;41.884;12.534;2023-08-21T06:41:31;101109.28;;;32.20;35.42
33414;BME280;60055;41.884;12.534;2023-08-21T06:43:57;101118.78;;;32.24;35.76
33414;BME280;60055;41.884;12.534;2023-08-21T06:46:23;101113.22;;;32.18;35.95
33414;BME280;60055;41.884;12.534;2023-08-21T06:48:49;101122.38;;;32.02;35.86
33414;BME280;60055;41.884;12.534;2023-08-21T06:51:16;101114.16;;;32.25;35.61
33414;BME280;60055;41.884;12.534;2023-08-21T06:53:41;101112.44;;;32.09;36.25
33414;BME280;60055;41.884;12.534;2023-08-21T06:56:07;101118.78;;;32.10;36.13
33414;BME280;60055;41.884;12.534;2023-08-21T06:58:33;101118.72;;;32.47;35.89
33414;BME280;60055;41.884;12.534;2023-08-21T07:01:00;101113.16;;;32.03;36.41
33414;BME280;60055;41.884;12.534;2023-08-21T07:03:25;101120.34;;;31.81;36.54
33414;BME280;60055;41.884;12.534;2023-08-21T07:05:57;101132.44;;;31.64;37.24
33414;BME280;60055;41.884;12.534;2023-08-21T07:08:24;101125.94;;;32.11;36.70
33414;BME280;60055;41.884;12.534;2023-08-21T07:10:50;101128.38;;;32.72;35.45
33414;BME280;60055;41.884;12.534;2023-08-21T07:13:15;101115.31;;;32.30;35.65
33414;BME280;60055;41.884;12.534;2023-08-21T07:15:41;101121.16;;;32.27;36.07
33414;BME280;60055;41.884;12.534;2023-08-21T07:18:06;101123.97;;;32.19;36.35
33414;BME280;60055;41.884;12.534;2023-08-21T07:20:33;101115.88;;;32.55;35.68
33414;BME280;60055;41.884;12.534;2023-08-21T07:22:58;101124.41;;;32.60;35.44
33414;BME280;60055;41.884;12.534;2023-08-21T07:25:24;101125.25;;;32.90;34.98
33414;BME280;60055;41.884;12.534;2023-08-21T07:27:51;101128.94;;;33.12;34.63
33414;BME280;60055;41.884;12.534;2023-08-21T07:30:18;101133.84;;;33.52;34.03
33414;BME280;60055;41.884;12.534;2023-08-21T07:32:45;101131.44;;;33.85;33.44
33414;BME280;60055;41.884;12.534;2023-08-21T07:35:11;101126.81;;;33.85;33.22
33414;BME280;60055;41.884;12.534;2023-08-21T07:37:36;101123.88;;;33.87;32.82
33414;BME280;60055;41.884;12.534;2023-08-21T07:40:02;101136.00;;;33.21;34.29
33414;BME280;60055;41.884;12.534;2023-08-21T07:42:27;101132.69;;;33.25;34.02
33414;BME280;60055;41.884;12.534;2023-08-21T07:44:53;101134.38;;;33.83;33.19
33414;BME280;60055;41.884;12.534;2023-08-21T07:47:18;101134.28;;;33.56;33.92
33414;BME280;60055;41.884;12.534;2023-08-21T07:49:44;101132.13;;;33.94;32.91
33414;BME280;60055;41.884;12.534;2023-08-21T07:52:09;101127.66;;;34.35;32.79
33414;BME280;60055;41.884;12.534;2023-08-21T07:54:35;101128.44;;;34.57;32.27
33414;BME280;60055;41.884;12.534;2023-08-21T07:57:00;101125.78;;;34.35;32.71
33414;BME280;60055;41.884;12.534;2023-08-21T07:59:26;101130.25;;;33.94;32.95
33414;BME280;60055;41.884;12.534;2023-08-21T08:01:52;101128.28;;;34.30;32.53
33414;BME280;60055;41.884;12.534;2023-08-21T08:04:20;101129.63;;;33.92;32.89
33414;BME280;60055;41.884;12.534;2023-08-21T08:06:46;101127.44;;;34.30;32.45
33414;BME280;60055;41.884;12.534;2023-08-21T08:09:11;101130.94;;;34.52;32.58
33414;BME280;60055;41.884;12.534;2023-08-21T08:11:36;101121.53;;;34.61;31.59
33414;BME280;60055;41.884;12.534;2023-08-21T08:14:02;101121.84;;;34.51;32.12
33414;BME280;60055;41.884;12.534;2023-08-21T08:16:27;101120.38;;;34.49;31.67
33414;BME280;60055;41.884;12.534;2023-08-21T08:18:53;101119.34;;;34.50;31.72
33414;BME280;60055;41.884;12.534;2023-08-21T08:21:19;101118.19;;;34.37;31.93
33414;BME280;60055;41.884;12.534;2023-08-21T08:23:44;101120.84;;;34.24;32.66
33414;BME280;60055;41.884;12.534;2023-08-21T08:26:10;101118.09;;;33.61;33.25
33414;BME280;60055;41.884;12.534;2023-08-21T08:28:36;101120.47;;;34.06;33.13
33414;BME280;60055;41.884;12.534;2023-08-21T08:31:01;101111.66;;;34.38;31.92
33414;BME280;60055;41.884;12.534;2023-08-21T08:33:27;101109.69;;;34.60;32.14
33414;BME280;60055;41.884;12.534;2023-08-21T08:35:52;101113.13;;;34.69;31.31
33414;BME280;60055;41.884;12.534;2023-08-21T08:38:18;101125.44;;;34.79;31.59
33414;BME280;60055;41.884;12.534;2023-08-21T08:40:46;101120.13;;;34.78;31.79
33414;BME280;60055;41.884;12.534;2023-08-21T08:43:13;101116.66;;;34.97;31.92
33414;BME280;60055;41.884;12.534;2023-08-21T08:45:41;101113.44;;;34.80;31.95
33414;BME280;60055;41.884;12.534;2023-08-21T08:48:07;101115.56;;;34.92;31.83
33414;BME280;60055;41.884;12.534;2023-08-21T08:50:33;101109.00;;;34.86;31.50
33414;BME280;60055;41.884;12.534;2023-08-21T08:53:00;101113.53;;;35.07;31.36
33414;BME280;60055;41.884;12.534;2023-08-21T08:55:26;101114.09;;;35.43;30.29
33414;BME280;60055;41.884;12.534;2023-08-21T08:57:55;101117.47;;;35.38;30.38
33414;BME280;60055;41.884;12.534;2023-08-21T09:00:21;101120.16;;;35.19;31.09
33414;BME280;60055;41.884;12.534;2023-08-21T09:02:47;101109.69;;;34.95;31.56
33414;BME280;60055;41.884;12.534;2023-08-21T09:05:13;101105.09;;;35.08;31.27
33414;BME280;60055;41.884;12.534;2023-08-21T09:07:39;101107.63;;;35.10;31.27
33414;BME280;60055;41.884;12.534;2023-08-21T09:10:05;101108.78;;;35.28;31.44
33414;BME280;60055;41.884;12.534;2023-08-21T09:12:39;101100.22;;;35.64;29.79
33414;BME280;60055;41.884;12.534;2023-08-21T09:15:07;101100.44;;;35.76;29.86
33414;BME280;60055;41.884;12.534;2023-08-21T09:17:33;101101.50;;;35.75;29.54
33414;BME280;60055;41.884;12.534;2023-08-21T09:20:08;101096.63;;;35.77;29.36
33414;BME280;60055;41.884;12.534;2023-08-21T09:22:35;101098.53;;;35.89;28.92
33414;BME280;60055;41.884;12.534;2023-08-21T09:25:03;101101.09;;;35.84;28.80
33414;BME280;60055;41.884;12.534;2023-08-21T09:27:35;101089.22;;;35.97;28.57
33414;BME280;60055;41.884;12.534;2023-08-21T09:30:08;101090.94;;;35.92;28.55
33414;BME280;60055;41.884;12.534;2023-08-21T09:35:20;101094.72;;;35.71;29.43
33414;BME280;60055;41.884;12.534;2023-08-21T09:37:46;101095.81;;;35.96;28.53
33414;BME280;60055;41.884;12.534;2023-08-21T09:40:12;101093.25;;;35.81;28.46
33414;BME280;60055;41.884;12.534;2023-08-21T09:42:39;101076.16;;;36.12;27.63
33414;BME280;60055;41.884;12.534;2023-08-21T09:45:05;101081.44;;;36.14;27.38
33414;BME280;60055;41.884;12.534;2023-08-21T09:47:31;101081.63;;;36.25;27.66
33414;BME280;60055;41.884;12.534;2023-08-21T09:49:57;101074.25;;;36.19;27.47
33414;BME280;60055;41.884;12.534;2023-08-21T09:52:24;101074.03;;;35.62;28.52
33414;BME280;60055;41.884;12.534;2023-08-21T09:54:50;101077.38;;;36.03;27.63
33414;BME280;60055;41.884;12.534;2023-08-21T09:57:19;101073.13;;;36.47;26.85
33414;BME280;60055;41.884;12.534;2023-08-21T09:59:47;101070.66;;;36.12;27.88
33414;BME280;60055;41.884;12.534;2023-08-21T10:02:14;101075.28;;;36.31;26.98
33414;BME280;60055;41.884;12.534;2023-08-21T10:04:42;101073.38;;;36.25;26.46
33414;BME280;60055;41.884;12.534;2023-08-21T10:07:10;101068.94;;;35.98;26.06
33414;BME280;60055;41.884;12.534;2023-08-21T10:09:40;101071.25;;;36.27;25.97
33414;BME280;60055;41.884;12.534;2023-08-21T10:12:09;101064.72;;;36.09;25.30
33414;BME280;60055;41.884;12.534;2023-08-21T10:14:35;101066.19;;;36.18;25.27
33414;BME280;60055;41.884;12.534;2023-08-21T10:17:01;101062.81;;;36.16;25.18
33414;BME280;60055;41.884;12.534;2023-08-21T10:19:31;101053.47;;;36.23;24.53
33414;BME280;60055;41.884;12.534;2023-08-21T10:21:57;101056.03;;;36.25;23.57
33414;BME280;60055;41.884;12.534;2023-08-21T10:24:42;101057.28;;;36.35;22.88
33414;BME280;60055;41.884;12.534;2023-08-21T10:27:07;101054.91;;;36.59;23.46
33414;BME280;60055;41.884;12.534;2023-08-21T10:29:33;101060.75;;;36.82;22.52
33414;BME280;60055;41.884;12.534;2023-08-21T10:32:03;101055.13;;;36.64;23.74
33414;BME280;60055;41.884;12.534;2023-08-21T10:34:36;101047.28;;;36.48;25.35
33414;BME280;60055;41.884;12.534;2023-08-21T10:37:09;101049.25;;;36.27;25.98
33414;BME280;60055;41.884;12.534;2023-08-21T10:39:37;101048.38;;;36.47;25.53
33414;BME280;60055;41.884;12.534;2023-08-21T10:49:45;101047.50;;;36.53;24.45
33414;BME280;60055;41.884;12.534;2023-08-21T10:52:10;101058.50;;;36.59;24.88
33414;BME280;60055;41.884;12.534;2023-08-21T10:54:44;101051.94;;;36.67;24.52
33414;BME280;60055;41.884;12.534;2023-08-21T10:57:09;101050.25;;;36.53;25.50
33414;BME280;60055;41.884;12.534;2023-08-21T10:59:35;101047.28;;;36.54;24.94
33414;BME280;60055;41.884;12.534;2023-08-21T11:02:00;101048.16;;;36.42;25.54
33414;BME280;60055;41.884;12.534;2023-08-21T11:04:26;101042.88;;;36.47;25.08
33414;BME280;60055;41.884;12.534;2023-08-21T11:06:51;101047.09;;;36.43;24.25
33414;BME280;60055;41.884;12.534;2023-08-21T11:09:17;101041.84;;;36.28;24.53
33414;BME280;60055;41.884;12.534;2023-08-21T11:11:43;101050.31;;;36.26;24.42
33414;BME280;60055;41.884;12.534;2023-08-21T11:14:09;101042.47;;;36.36;23.81
33414;BME280;60055;41.884;12.534;2023-08-21T11:16:34;101038.84;;;36.43;23.53
33414;BME280;60055;41.884;12.534;2023-08-21T11:19:03;101040.53;;;36.50;23.37
33414;BME280;60055;41.884;12.534;2023-08-21T11:21:30;101043.44;;;36.68;23.21
33414;BME280;60055;41.884;12.534;2023-08-21T11:23:55;101045.53;;;36.73;22.58
33414;BME280;60055;41.884;12.534;2023-08-21T11:26:20;101035.34;;;36.80;22.95
33414;BME280;60055;41.884;12.534;2023-08-21T11:28:46;101032.41;;;36.75;22.42
33414;BME280;60055;41.884;12.534;2023-08-21T11:31:13;101036.91;;;36.63;22.65
33414;BME280;60055;41.884;12.534;2023-08-21T11:33:38;101029.41;;;36.83;22.46
33414;BME280;60055;41.884;12.534;2023-08-21T11:36:06;101029.94;;;36.60;23.10
33414;BME280;60055;41.884;12.534;2023-08-21T11:38:32;101033.53;;;36.48;23.34
33414;BME280;60055;41.884;12.534;2023-08-21T11:40:59;101033.09;;;36.51;22.42
33414;BME280;60055;41.884;12.534;2023-08-21T11:43:37;101025.50;;;36.46;22.17
33414;BME280;60055;41.884;12.534;2023-08-21T11:46:04;101016.31;;;36.72;21.87
33414;BME280;60055;41.884;12.534;2023-08-21T11:48:30;101025.16;;;36.87;21.42
33414;BME280;60055;41.884;12.534;2023-08-21T11:50:56;101019.38;;;37.02;21.53
33414;BME280;60055;41.884;12.534;2023-08-21T11:55:59;101018.97;;;36.92;20.74
33414;BME280;60055;41.884;12.534;2023-08-21T11:58:27;101015.06;;;37.12;20.01
33414;BME280;60055;41.884;12.534;2023-08-21T12:00:53;101010.25;;;37.08;20.74
33414;BME280;60055;41.884;12.534;2023-08-21T12:03:19;101004.41;;;37.22;20.60
33414;BME280;60055;41.884;12.534;2023-08-21T12:05:44;100999.25;;;37.32;20.17
33414;BME280;60055;41.884;12.534;2023-08-21T12:08:10;101007.00;;;37.49;20.44
33414;BME280;60055;41.884;12.534;2023-08-21T12:10:36;100989.53;;;37.61;19.94
33414;BME280;60055;41.884;12.534;2023-08-21T12:13:01;101006.94;;;37.55;20.41
33414;BME280;60055;41.884;12.534;2023-08-21T12:15:27;100993.75;;;37.32;20.70
33414;BME280;60055;41.884;12.534;2023-08-21T12:17:52;100998.34;;;37.38;19.99
33414;BME280;60055;41.884;12.534;2023-08-21T12:20:17;100986.72;;;37.36;20.26
33414;BME280;60055;41.884;12.534;2023-08-21T12:22:43;100991.78;;;37.40;20.06
33414;BME280;60055;41.884;12.534;2023-08-21T12:25:09;100990.03;;;37.52;19.70
33414;BME280;60055;41.884;12.534;2023-08-21T12:27:35;100985.06;;;37.60;20.24
33414;BME280;60055;41.884;12.534;2023-08-21T12:30:01;100984.72;;;37.50;19.75
33414;BME280;60055;41.884;12.534;2023-08-21T12:32:26;100995.19;;;37.35;20.52
33414;BME280;60055;41.884;12.534;2023-08-21T12:34:52;100989.28;;;37.31;20.02
33414;BME280;60055;41.884;12.534;2023-08-21T12:37:18;100972.19;;;37.54;19.89
33414;BME280;60055;41.884;12.534;2023-08-21T12:39:43;100975.41;;;37.51;19.99
33414;BME280;60055;41.884;12.534;2023-08-21T12:42:08;100979.22;;;37.75;19.87
33414;BME280;60055;41.884;12.534;2023-08-21T12:44:34;100967.81;;;37.90;19.60
33414;BME280;60055;41.884;12.534;2023-08-21T12:47:00;100971.09;;;38.05;19.41
33414;BME280;60055;41.884;12.534;2023-08-21T12:49:25;100977.59;;;37.92;19.09